Sedona, AZ (86336)

6:16 PM MST on July 29, 2015 (GMT -0700)
Juniper Knolls | | Change Station
CLOSE
Current Station
Personal Weather Station
Location: Sedona, AZ
Elevation: 4409 ft
Nearby Weather Stations
Active Advisory: Areal Flood Advisory

Elev 4409 ft 34.86 °N, 111.82 °W | Updated 1 minute ago

Clear
Clear
86.4 °F
Feels Like 84 °F
N
3.0
Wind Variable Wind from South
Gusts 9.0 mph

Today
High -- | Low -- °F
--% Chance of Precip.
Yesterday
High -- | Low -- °F
Precip. -- in
5:34 AM 7:32 PM
Waxing Gibbous, 97% visible
Pressure 30.17 in
Visibility 10.0 miles
Clouds Clear
Heat Index 84 °F
Dew Point 53 °F
Humidity 32%
Rainfall 0.00 in
Snow Depth Not available.
UV 1 out of 12
Pollen 3.80 out of 12
Air Quality Not available.
Flu Activity Not available.
METAR KSEZ 300055Z AUTO 17008KT 10SM CLR 30/10 A3017 RMK AO2 LTG DSNT SE AND S

More Conditions Fewer Conditions

Pressure 30.17 in
Visibility 10.0 miles
Clouds Clear
Heat Index 84 °F
Dew Point 53 °F
Humidity 32%
Rainfall 0.00 in
Snow Depth Not available.
UV 1 out of 12
Pollen 3.80 out of 12
Air Quality Not available.
Flu Activity Not available.
METAR KSEZ 300055Z AUTO 17008KT 10SM CLR 30/10 A3017 RMK AO2 LTG DSNT SE AND S

More Conditions Fewer Conditions

10-Day Weather Forecast

×

Almanac

Astronomy

Jul. 29, 2015 Rise Set
Actual Time
Civil Twilight
Nautical Twilight
Astronomical Twilight
Moon
Length of Visible Light
Length of Day
Tomorrow will be .
, % of the Moon is Illuminated

Today's Extremes

State Highs State Lows

Community

WunderPhotos

Upload Photos

1,842,238 photos uploaded!

WunderBlogs® & News

Nearby

Air Quality

  Air Quality AQ Index Pollutant
Not available.

Snow Depth

Station Depth Elevation

Earthquake Activity

City Distance Mag. Time & Date
Minimum magnitude displayed is 2.5.

Coastal Water Temperatures

Place Temperature

Stations

Nearby Weather Stations

Station Location Temp. Windchill Dew Point Humidity Wind Precip. Elev Updated Type
                   
Areal Flood Advisory
Statement as of 5:04 PM MDT on July 29, 2015

The National Weather Service in Flagstaff has issued a

* small stream Flood Advisory for...
southeastern Yavapai County in west central Arizona...

* until 800 PM MST

* at 502 PM MST... Doppler radar indicated heavy rain due to
thunderstorms. This will cause small stream flooding in the
advisory area. Radar estimates of 1 to 3 inches of rainfall over
the past hour.

* Some locations that will experience flooding include...
Horseshoe Reservoir.

Precautionary/preparedness actions...

Excessive runoff from heavy rainfall will cause flooding of small
creeks and streams... as well as farm and country roads. Do not
attempt to travel across flooded roads.


Lat... Lon 3400 11175 3401 11178 3413 11177 3413 11151
      3406 11149 3402 11151 3400 11151


McCollum